Time,TemperatureF,DewpointF,PressureIn,WindDirection,WindDirectionDegrees,WindSpeedMPH,WindSpeedGustMPH,Humidity,HourlyPrecipIn,Conditions,Clouds,dailyrainin,SoftwareType,DateUTC
2013-08-24 00:01:00,66.7,65.5,30.07,East,88,0.0,0.0,96,0.00,,,0.00,WeatherCatV1.20B785,2013-08-24 04:01:00,
2013-08-24 00:06:00,66.6,65.4,30.07,East,88,0.0,0.0,96,0.00,,,0.00,WeatherCatV1.20B785,2013-08-24 04:06:00,
2013-08-24 00:11:00,66.5,65.3,30.07,East,88,0.0,0.0,96,0.00,,,0.00,WeatherCatV1.20B785,2013-08-24 04:11:00,
2013-08-24 00:16:00,66.4,65.5,30.07,East,88,0.0,0.0,97,0.00,,,0.00,WeatherCatV1.20B785,2013-08-24 04:16:00,
2013-08-24 00:21:00,66.4,65.5,30.08,East,88,0.0,0.0,97,0.00,,,0.00,WeatherCatV1.20B785,2013-08-24 04:21:00,
2013-08-24 00:26:00,66.4,65.5,30.08,East,88,0.0,0.0,97,0.00,,,0.00,WeatherCatV1.20B785,2013-08-24 04:26:00,
2013-08-24 00:31:00,66.5,65.6,30.08,East,88,0.0,0.0,97,0.00,,,0.00,WeatherCatV1.20B785,2013-08-24 04:31:00,
2013-08-24 00:36:00,66.6,65.7,30.08,East,88,0.0,0.0,97,0.00,,,0.00,WeatherCatV1.20B785,2013-08-24 04:36:00,
2013-08-24 00:41:00,66.6,65.7,30.08,East,88,0.0,0.0,97,0.00,,,0.00,WeatherCatV1.20B785,2013-08-24 04:41:00,
2013-08-24 00:46:00,66.6,65.7,30.08,East,88,0.0,0.0,97,0.00,,,0.00,WeatherCatV1.20B785,2013-08-24 04:46:00,
2013-08-24 00:51:00,66.6,65.4,30.08,East,88,0.0,0.0,96,0.00,,,0.00,WeatherCatV1.20B785,2013-08-24 04:51:00,
2013-08-24 00:56:00,66.6,65.4,30.08,East,88,0.0,0.0,96,0.00,,,0.00,WeatherCatV1.20B785,2013-08-24 04:56:00,
2013-08-24 01:01:00,66.5,65.3,30.08,East,88,0.0,0.0,96,0.00,,,0.00,WeatherCatV1.20B785,2013-08-24 05:01:00,
2013-08-24 01:06:00,66.3,65.1,30.07,East,88,0.0,0.0,96,0.00,,,0.00,WeatherCatV1.20B785,2013-08-24 05:06:00,
2013-08-24 01:11:00,66.0,64.8,30.08,East,88,0.0,0.0,96,0.00,,,0.00,WeatherCatV1.20B785,2013-08-24 05:11:00,
2013-08-24 01:16:00,65.9,64.7,30.08,East,88,0.0,0.0,96,0.00,,,0.00,WeatherCatV1.20B785,2013-08-24 05:16:00,
2013-08-24 01:21:00,66.0,65.1,30.08,East,88,0.0,0.0,97,0.00,,,0.00,WeatherCatV1.20B785,2013-08-24 05:21:00,
2013-08-24 01:26:00,66.0,65.1,30.07,East,88,0.0,0.0,97,0.00,,,0.00,WeatherCatV1.20B785,2013-08-24 05:26:00,
2013-08-24 01:31:00,66.0,65.1,30.07,East,88,0.0,0.0,97,0.00,,,0.00,WeatherCatV1.20B785,2013-08-24 05:31:00,
2013-08-24 01:36:00,66.1,65.2,30.07,East,88,0.0,0.0,97,0.00,,,0.00,WeatherCatV1.20B785,2013-08-24 05:36:00,
2013-08-24 01:41:00,66.0,65.1,30.07,East,88,0.0,0.0,97,0.00,,,0.00,WeatherCatV1.20B785,2013-08-24 05:41:00,
2013-08-24 01:46:00,66.0,65.1,30.07,East,88,0.0,0.0,97,0.00,,,0.00,WeatherCatV1.20B785,2013-08-24 05:46:00,
2013-08-24 01:51:00,66.0,65.1,30.07,East,88,0.0,0.0,97,0.00,,,0.00,WeatherCatV1.20B785,2013-08-24 05:51:00,
2013-08-24 01:56:00,66.1,65.2,30.07,East,88,0.0,0.0,97,0.00,,,0.00,WeatherCatV1.20B785,2013-08-24 05:56:00,
2013-08-24 02:01:00,66.2,65.3,30.07,East,88,0.0,0.0,97,0.00,,,0.00,WeatherCatV1.20B785,2013-08-24 06:01:00,
2013-08-24 02:06:00,66.3,65.4,30.07,East,88,0.0,0.0,97,0.00,,,0.00,WeatherCatV1.20B785,2013-08-24 06:06:00,
2013-08-24 02:11:00,66.2,65.3,30.07,East,88,0.0,0.0,97,0.00,,,0.00,WeatherCatV1.20B785,2013-08-24 06:11:00,
2013-08-24 02:16:00,66.2,65.0,30.07,East,88,0.0,0.0,96,0.00,,,0.00,WeatherCatV1.20B785,2013-08-24 06:16:00,
2013-08-24 02:21:00,66.1,64.9,30.07,East,88,0.0,0.0,96,0.00,,,0.00,WeatherCatV1.20B785,2013-08-24 06:21:00,
2013-08-24 02:26:00,65.9,64.7,30.07,East,88,0.0,0.0,96,0.00,,,0.00,WeatherCatV1.20B785,2013-08-24 06:26:00,
2013-08-24 02:31:00,65.8,64.6,30.07,East,88,0.0,0.0,96,0.00,,,0.00,WeatherCatV1.20B785,2013-08-24 06:31:00,
2013-08-24 02:36:00,65.6,64.4,30.07,East,88,0.0,0.0,96,0.00,,,0.00,WeatherCatV1.20B785,2013-08-24 06:36:00,
2013-08-24 02:41:00,65.6,64.4,30.07,East,88,0.0,0.0,96,0.00,,,0.00,WeatherCatV1.20B785,2013-08-24 06:41:00,
2013-08-24 02:46:00,65.4,64.2,30.07,East,88,0.0,0.0,96,0.00,,,0.00,WeatherCatV1.20B785,2013-08-24 06:46:00,
2013-08-24 02:51:00,65.2,64.0,30.07,East,88,0.0,0.0,96,0.00,,,0.00,WeatherCatV1.20B785,2013-08-24 06:51:00,
2013-08-24 02:56:00,65.0,63.8,30.07,East,88,0.0,0.0,96,0.00,,,0.00,WeatherCatV1.20B785,2013-08-24 06:56:00,
2013-08-24 03:01:00,64.8,63.6,30.07,East,88,0.0,0.0,96,0.00,,,0.00,WeatherCatV1.20B785,2013-08-24 07:01:00,
2013-08-24 03:06:00,64.7,63.8,30.07,East,88,0.0,0.0,97,0.00,,,0.00,WeatherCatV1.20B785,2013-08-24 07:06:00,
2013-08-24 03:11:00,64.8,63.9,30.07,East,88,0.0,0.0,97,0.00,,,0.00,WeatherCatV1.20B785,2013-08-24 07:11:00,
2013-08-24 03:16:00,64.7,63.8,30.07,East,88,0.0,0.0,97,0.00,,,0.00,WeatherCatV1.20B785,2013-08-24 07:16:00,
2013-08-24 03:21:00,64.7,63.8,30.07,East,88,0.0,0.0,97,0.00,,,0.00,WeatherCatV1.20B785,2013-08-24 07:21:00,
2013-08-24 03:26:00,64.7,63.8,30.07,East,88,0.0,0.0,97,0.00,,,0.00,WeatherCatV1.20B785,2013-08-24 07:26:00,
2013-08-24 03:31:00,64.8,63.9,30.08,East,88,0.0,0.0,97,0.00,,,0.00,WeatherCatV1.20B785,2013-08-24 07:31:00,
2013-08-24 03:36:00,64.7,63.8,30.08,East,88,0.0,0.0,97,0.00,,,0.00,WeatherCatV1.20B785,2013-08-24 07:36:00,
2013-08-24 03:41:00,64.7,63.8,30.08,East,88,0.0,0.0,97,0.00,,,0.00,WeatherCatV1.20B785,2013-08-24 07:41:00,
2013-08-24 03:46:00,64.6,63.7,30.08,East,88,0.0,0.0,97,0.00,,,0.00,WeatherCatV1.20B785,2013-08-24 07:46:00,
2013-08-24 03:51:00,64.7,64.1,30.08,East,88,0.0,0.0,98,0.00,,,0.00,WeatherCatV1.20B785,2013-08-24 07:51:00,
2013-08-24 03:56:00,64.7,64.1,30.08,East,88,0.0,0.0,98,0.00,,,0.00,WeatherCatV1.20B785,2013-08-24 07:56:00,
2013-08-24 04:01:00,64.8,64.2,30.09,East,88,0.0,0.0,98,0.00,,,0.00,WeatherCatV1.20B785,2013-08-24 08:01:00,
2013-08-24 04:06:00,64.7,64.1,30.09,East,88,0.0,0.0,98,0.00,,,0.00,WeatherCatV1.20B785,2013-08-24 08:06:00,
2013-08-24 04:11:00,64.6,63.7,30.09,East,88,0.0,0.0,97,0.00,,,0.00,WeatherCatV1.20B785,2013-08-24 08:11:00,
2013-08-24 04:16:00,64.7,64.1,30.09,East,88,0.0,0.0,98,0.00,,,0.00,WeatherCatV1.20B785,2013-08-24 08:16:00,
2013-08-24 04:21:00,64.7,64.1,30.09,East,88,0.0,0.0,98,0.00,,,0.00,WeatherCatV1.20B785,2013-08-24 08:21:00,
2013-08-24 04:26:00,64.6,63.7,30.09,East,88,0.0,0.0,97,0.00,,,0.00,WeatherCatV1.20B785,2013-08-24 08:26:00,
2013-08-24 04:31:00,64.6,63.7,30.09,East,88,0.0,0.0,97,0.00,,,0.00,WeatherCatV1.20B785,2013-08-24 08:31:00,
2013-08-24 04:36:00,64.5,63.6,30.10,East,88,0.0,0.0,97,0.00,,,0.00,WeatherCatV1.20B785,2013-08-24 08:36:00,
2013-08-24 04:41:00,64.5,63.6,30.10,East,88,0.0,0.0,97,0.00,,,0.00,WeatherCatV1.20B785,2013-08-24 08:41:00,
2013-08-24 04:46:00,64.5,63.6,30.10,East,89,0.0,0.0,97,0.00,,,0.00,WeatherCatV1.20B785,2013-08-24 08:46:00,
2013-08-24 04:51:00,64.4,63.5,30.10,East,89,0.0,0.0,97,0.00,,,0.00,WeatherCatV1.20B785,2013-08-24 08:51:00,
2013-08-24 04:56:00,64.2,63.3,30.10,East,89,0.0,0.0,97,0.00,,,0.00,WeatherCatV1.20B785,2013-08-24 08:56:00,
2013-08-24 05:01:00,64.1,63.2,30.10,East,89,0.0,0.0,97,0.00,,,0.00,WeatherCatV1.20B785,2013-08-24 09:01:00,
2013-08-24 05:06:00,64.1,63.2,30.10,East,88,0.0,0.0,97,0.00,,,0.00,WeatherCatV1.20B785,2013-08-24 09:06:00,
2013-08-24 05:11:00,64.1,63.2,30.11,East,89,0.0,0.0,97,0.00,,,0.00,WeatherCatV1.20B785,2013-08-24 09:11:00,
2013-08-24 05:16:00,64.0,63.1,30.11,East,89,0.0,0.0,97,0.00,,,0.00,WeatherCatV1.20B785,2013-08-24 09:16:00,
2013-08-24 05:21:00,64.0,63.1,30.11,East,89,0.0,0.0,97,0.00,,,0.00,WeatherCatV1.20B785,2013-08-24 09:21:00,
2013-08-24 05:26:00,64.1,63.2,30.11,East,89,0.0,0.0,97,0.00,,,0.00,WeatherCatV1.20B785,2013-08-24 09:26:00,
2013-08-24 05:31:00,64.2,63.3,30.11,East,89,0.0,0.0,97,0.00,,,0.00,WeatherCatV1.20B785,2013-08-24 09:31:00,
2013-08-24 05:36:00,64.3,63.4,30.11,East,89,0.0,0.0,97,0.00,,,0.00,WeatherCatV1.20B785,2013-08-24 09:36:00,
2013-08-24 05:41:00,64.2,63.3,30.11,East,89,0.0,0.0,97,0.00,,,0.00,WeatherCatV1.20B785,2013-08-24 09:41:00,
2013-08-24 05:46:00,64.1,63.2,30.11,East,89,0.0,0.0,97,0.00,,,0.00,WeatherCatV1.20B785,2013-08-24 09:46:00,
2013-08-24 05:51:00,64.0,63.1,30.11,East,89,0.0,0.0,97,0.00,,,0.00,WeatherCatV1.20B785,2013-08-24 09:51:00,
2013-08-24 05:56:00,63.8,62.9,30.12,East,89,0.0,0.0,97,0.00,,,0.00,WeatherCatV1.20B785,2013-08-24 09:56:00,
2013-08-24 06:01:00,63.6,62.7,30.12,East,89,0.0,0.0,97,0.00,,,0.00,WeatherCatV1.20B785,2013-08-24 10:01:00,
2013-08-24 06:06:00,63.5,62.6,30.12,East,89,0.0,0.0,97,0.00,,,0.00,WeatherCatV1.20B785,2013-08-24 10:06:00,
2013-08-24 06:11:00,63.3,62.4,30.12,East,89,0.0,0.0,97,0.00,,,0.00,WeatherCatV1.20B785,2013-08-24 10:11:00,
2013-08-24 06:16:00,63.1,62.2,30.12,East,89,0.0,0.0,97,0.00,,,0.00,WeatherCatV1.20B785,2013-08-24 10:16:00,
2013-08-24 06:21:00,63.0,62.1,30.13,East,89,0.0,0.0,97,0.00,,,0.00,WeatherCatV1.20B785,2013-08-24 10:21:00,
2013-08-24 06:26:00,63.0,62.1,30.13,East,89,0.0,0.0,97,0.00,,,0.00,WeatherCatV1.20B785,2013-08-24 10:26:00,
2013-08-24 06:31:00,63.0,62.1,30.13,East,89,0.0,0.0,97,0.00,,,0.00,WeatherCatV1.20B785,2013-08-24 10:31:00,
2013-08-24 06:36:00,63.1,62.2,30.13,East,89,0.0,0.0,97,0.00,,,0.00,WeatherCatV1.20B785,2013-08-24 10:36:00,
2013-08-24 06:41:00,63.0,62.1,30.13,East,88,0.0,0.0,97,0.00,,,0.00,WeatherCatV1.20B785,2013-08-24 10:41:00,
2013-08-24 06:46:00,63.0,62.1,30.13,East,88,0.0,0.0,97,0.00,,,0.00,WeatherCatV1.20B785,2013-08-24 10:46:00,
2013-08-24 06:51:00,63.1,62.5,30.14,East,88,0.0,0.0,98,0.00,,,0.00,WeatherCatV1.20B785,2013-08-24 10:51:00,
2013-08-24 06:56:00,63.1,62.5,30.14,East,88,0.0,0.0,98,0.00,,,0.00,WeatherCatV1.20B785,2013-08-24 10:56:00,
2013-08-24 07:01:00,63.1,62.5,30.14,East,88,0.0,0.0,98,0.00,,,0.00,WeatherCatV1.20B785,2013-08-24 11:01:00,
2013-08-24 07:06:00,63.1,62.5,30.14,East,88,0.0,0.0,98,0.00,,,0.00,WeatherCatV1.20B785,2013-08-24 11:06:00,
2013-08-24 07:11:00,63.2,62.6,30.15,East,88,0.0,0.0,98,0.00,,,0.00,WeatherCatV1.20B785,2013-08-24 11:11:00,
2013-08-24 07:16:00,63.3,62.7,30.15,East,88,0.0,0.0,98,0.00,,,0.00,WeatherCatV1.20B785,2013-08-24 11:16:00,
2013-08-24 07:21:00,63.4,62.8,30.15,East,88,0.0,0.0,98,0.00,,,0.00,WeatherCatV1.20B785,2013-08-24 11:21:00,
2013-08-24 07:26:00,63.6,63.0,30.15,East,88,0.0,0.0,98,0.00,,,0.00,WeatherCatV1.20B785,2013-08-24 11:26:00,
2013-08-24 07:31:00,63.7,63.1,30.15,East,88,0.0,0.0,98,0.00,,,0.00,WeatherCatV1.20B785,2013-08-24 11:31:00,
2013-08-24 07:36:00,63.7,63.1,30.16,East,88,0.0,0.0,98,0.00,,,0.00,WeatherCatV1.20B785,2013-08-24 11:36:00,
2013-08-24 07:41:00,63.8,63.2,30.16,East,88,0.0,0.0,98,0.00,,,0.00,WeatherCatV1.20B785,2013-08-24 11:41:00,
2013-08-24 07:46:00,63.9,63.3,30.16,East,88,0.0,0.0,98,0.00,,,0.00,WeatherCatV1.20B785,2013-08-24 11:46:00,
2013-08-24 07:51:00,64.1,63.5,30.16,East,88,0.0,0.0,98,0.00,,,0.00,WeatherCatV1.20B785,2013-08-24 11:51:00,
2013-08-24 07:56:00,64.1,63.5,30.16,East,88,0.0,0.0,98,0.00,,,0.00,WeatherCatV1.20B785,2013-08-24 11:56:00,
2013-08-24 08:01:00,64.2,63.6,30.17,East,88,0.0,0.0,98,0.00,,,0.00,WeatherCatV1.20B785,2013-08-24 12:01:00,
2013-08-24 08:06:00,64.3,63.7,30.17,East,88,0.0,0.0,98,0.00,,,0.00,WeatherCatV1.20B785,2013-08-24 12:06:00,
2013-08-24 08:11:00,64.5,63.9,30.17,East,88,0.0,0.0,98,0.00,,,0.00,WeatherCatV1.20B785,2013-08-24 12:11:00,
2013-08-24 08:16:00,64.7,64.1,30.17,East,88,0.0,0.0,98,0.00,,,0.00,WeatherCatV1.20B785,2013-08-24 12:16:00,
2013-08-24 08:21:00,64.9,64.3,30.17,East,88,0.0,0.0,98,0.00,,,0.00,WeatherCatV1.20B785,2013-08-24 12:21:00,
2013-08-24 08:26:00,65.0,64.4,30.17,East,88,0.0,0.0,98,0.00,,,0.00,WeatherCatV1.20B785,2013-08-24 12:26:00,
2013-08-24 08:31:00,65.1,64.5,30.17,East,88,0.0,0.0,98,0.00,,,0.00,WeatherCatV1.20B785,2013-08-24 12:31:00,
2013-08-24 08:36:00,65.3,64.7,30.17,East,88,0.0,0.0,98,0.00,,,0.00,WeatherCatV1.20B785,2013-08-24 12:36:00,
2013-08-24 08:41:00,65.5,64.6,30.17,East,88,0.0,0.0,97,0.00,,,0.00,WeatherCatV1.20B785,2013-08-24 12:41:00,
2013-08-24 08:46:00,65.7,64.5,30.17,East,86,0.0,0.0,96,0.00,,,0.00,WeatherCatV1.20B785,2013-08-24 12:46:00,
2013-08-24 08:51:00,66.0,64.2,30.17,East,86,0.0,0.0,94,0.00,,,0.00,WeatherCatV1.20B785,2013-08-24 12:51:00,
2013-08-24 08:56:00,66.3,64.2,30.17,East,86,0.0,0.0,93,0.00,,,0.00,WeatherCatV1.20B785,2013-08-24 12:56:00,
2013-08-24 09:01:00,66.4,64.3,30.18,ENE,64,1.0,3.0,93,0.00,,,0.00,WeatherCatV1.20B785,2013-08-24 13:01:00,
2013-08-24 09:06:00,66.3,64.2,30.18,NE,52,3.0,4.0,93,0.00,,,0.00,WeatherCatV1.20B785,2013-08-24 13:06:00,
2013-08-24 09:11:00,66.1,64.0,30.18,ENE,67,0.0,1.0,93,0.00,,,0.00,WeatherCatV1.20B785,2013-08-24 13:11:00,
2013-08-24 09:16:00,66.1,64.0,30.18,ENE,68,0.0,0.0,93,0.00,,,0.00,WeatherCatV1.20B785,2013-08-24 13:16:00,
2013-08-24 09:21:00,66.1,64.3,30.18,ENE,72,2.0,3.0,94,0.00,,,0.00,WeatherCatV1.20B785,2013-08-24 13:21:00,
2013-08-24 09:26:00,66.1,64.0,30.18,ENE,59,2.0,3.0,93,0.00,,,0.00,WeatherCatV1.20B785,2013-08-24 13:26:00,
2013-08-24 09:31:00,66.2,63.8,30.18,ENE,68,3.0,3.0,92,0.00,,,0.00,WeatherCatV1.20B785,2013-08-24 13:31:00,
2013-08-24 09:36:00,66.4,63.7,30.18,NE,51,2.0,4.0,91,0.00,,,0.00,WeatherCatV1.20B785,2013-08-24 13:36:00,
2013-08-24 09:41:00,66.6,63.9,30.18,ENE,67,2.0,4.0,91,0.00,,,0.00,WeatherCatV1.20B785,2013-08-24 13:41:00,
2013-08-24 09:46:00,66.8,63.8,30.18,NE,47,3.0,6.0,90,0.00,,,0.00,WeatherCatV1.20B785,2013-08-24 13:46:00,
2013-08-24 09:51:00,67.1,64.1,30.18,ENE,60,4.0,4.0,90,0.00,,,0.00,WeatherCatV1.20B785,2013-08-24 13:51:00,
2013-08-24 09:56:00,67.3,63.9,30.18,NNE,32,4.0,4.0,89,0.00,,,0.00,WeatherCatV1.20B785,2013-08-24 13:56:00,
2013-08-24 10:01:00,67.4,64.0,30.18,ENE,60,2.0,5.0,89,0.00,,,0.00,WeatherCatV1.20B785,2013-08-24 14:01:00,
2013-08-24 10:06:00,67.6,64.6,30.18,East,94,0.0,0.0,90,0.00,,,0.00,WeatherCatV1.20B785,2013-08-24 14:06:00,
2013-08-24 10:11:00,67.9,64.2,30.18,ENE,65,1.0,5.0,88,0.00,,,0.00,WeatherCatV1.20B785,2013-08-24 14:11:00,
2013-08-24 10:16:00,68.3,64.6,30.18,ENE,59,2.0,5.0,88,0.00,,,0.00,WeatherCatV1.20B785,2013-08-24 14:16:00,
2013-08-24 10:21:00,68.5,65.1,30.19,ENE,71,0.0,0.0,89,0.00,,,0.00,WeatherCatV1.20B785,2013-08-24 14:21:00,
2013-08-24 10:26:00,68.8,65.1,30.19,ENE,65,1.0,2.0,88,0.00,,,0.00,WeatherCatV1.20B785,2013-08-24 14:26:00,
2013-08-24 10:31:00,69.1,64.7,30.19,ENE,70,1.0,2.0,86,0.00,,,0.00,WeatherCatV1.20B785,2013-08-24 14:31:00,
2013-08-24 10:36:00,69.4,65.3,30.19,ENE,71,0.0,0.0,87,0.00,,,0.00,WeatherCatV1.20B785,2013-08-24 14:36:00,
2013-08-24 10:41:00,69.4,65.0,30.19,East,90,0.0,2.0,86,0.00,,,0.00,WeatherCatV1.20B785,2013-08-24 14:41:00,
2013-08-24 10:46:00,69.7,65.3,30.19,East,90,0.0,1.0,86,0.00,,,0.00,WeatherCatV1.20B785,2013-08-24 14:46:00,
2013-08-24 10:51:00,69.8,65.4,30.19,East,89,0.0,0.0,86,0.00,,,0.00,WeatherCatV1.20B785,2013-08-24 14:51:00,
2013-08-24 10:56:00,70.0,65.3,30.19,East,90,0.0,0.0,85,0.00,,,0.00,WeatherCatV1.20B785,2013-08-24 14:56:00,
2013-08-24 11:01:00,70.0,64.9,30.19,East,90,0.0,0.0,84,0.00,,,0.00,WeatherCatV1.20B785,2013-08-24 15:01:00,
2013-08-24 11:06:00,70.3,65.6,30.19,East,90,0.0,0.0,85,0.00,,,0.00,WeatherCatV1.20B785,2013-08-24 15:06:00,
2013-08-24 11:11:00,70.8,65.4,30.20,East,89,0.0,0.0,83,0.00,,,0.00,WeatherCatV1.20B785,2013-08-24 15:11:00,
2013-08-24 11:16:00,71.0,65.2,30.20,ESE,117,0.0,0.0,82,0.00,,,0.00,WeatherCatV1.20B785,2013-08-24 15:16:00,
2013-08-24 11:21:00,71.0,65.6,30.20,ESE,116,0.0,0.0,83,0.00,,,0.00,WeatherCatV1.20B785,2013-08-24 15:21:00,
2013-08-24 11:26:00,71.4,66.0,30.19,ESE,116,0.0,0.0,83,0.00,,,0.00,WeatherCatV1.20B785,2013-08-24 15:26:00,
2013-08-24 11:31:00,71.7,65.9,30.19,ESE,116,0.0,0.0,82,0.00,,,0.00,WeatherCatV1.20B785,2013-08-24 15:31:00,
2013-08-24 11:36:00,72.2,66.0,30.19,East,82,0.0,0.0,81,0.00,,,0.00,WeatherCatV1.20B785,2013-08-24 15:36:00,
2013-08-24 11:41:00,72.4,65.1,30.19,SE,128,0.0,1.0,78,0.00,,,0.00,WeatherCatV1.20B785,2013-08-24 15:41:00,
2013-08-24 11:46:00,72.1,64.8,30.19,SE,129,0.0,2.0,78,0.00,,,0.00,WeatherCatV1.20B785,2013-08-24 15:46:00,
2013-08-24 11:51:00,72.2,65.7,30.19,SE,129,0.0,0.0,80,0.00,,,0.00,WeatherCatV1.20B785,2013-08-24 15:51:00,
2013-08-24 11:56:00,72.2,63.8,30.19,SE,134,0.0,5.0,75,0.00,,,0.00,WeatherCatV1.20B785,2013-08-24 15:56:00,
2013-08-24 12:01:00,72.2,64.2,30.19,ENE,57,0.0,1.0,76,0.00,,,0.00,WeatherCatV1.20B785,2013-08-24 16:01:00,
2013-08-24 12:06:00,72.2,64.6,30.19,NE,48,5.0,5.0,77,0.00,,,0.00,WeatherCatV1.20B785,2013-08-24 16:06:00,
2013-08-24 12:11:00,72.6,63.8,30.19,East,91,1.0,4.0,74,0.00,,,0.00,WeatherCatV1.20B785,2013-08-24 16:11:00,
2013-08-24 12:16:00,73.0,63.4,30.19,ENE,60,0.0,4.0,72,0.00,,,0.00,WeatherCatV1.20B785,2013-08-24 16:16:00,
2013-08-24 12:21:00,73.6,64.0,30.19,NE,36,2.0,2.0,72,0.00,,,0.00,WeatherCatV1.20B785,2013-08-24 16:21:00,
2013-08-24 12:26:00,74.0,63.2,30.19,East,101,0.0,4.0,69,0.00,,,0.00,WeatherCatV1.20B785,2013-08-24 16:26:00,
2013-08-24 12:31:00,74.0,63.2,30.19,ENE,77,2.0,2.0,69,0.00,,,0.00,WeatherCatV1.20B785,2013-08-24 16:31:00,
2013-08-24 12:36:00,73.8,63.0,30.19,NE,51,0.0,1.0,69,0.00,,,0.00,WeatherCatV1.20B785,2013-08-24 16:36:00,
2013-08-24 12:41:00,73.6,63.6,30.18,ESE,109,1.0,1.0,71,0.00,,,0.00,WeatherCatV1.20B785,2013-08-24 16:41:00,
2013-08-24 12:46:00,74.1,64.1,30.19,ESE,108,0.0,1.0,71,0.00,,,0.00,WeatherCatV1.20B785,2013-08-24 16:46:00,
2013-08-24 12:51:00,74.5,64.9,30.18,ESE,108,0.0,1.0,72,0.00,,,0.00,WeatherCatV1.20B785,2013-08-24 16:51:00,
2013-08-24 12:56:00,75.1,64.6,30.18,SE,136,0.0,1.0,70,0.00,,,0.00,WeatherCatV1.20B785,2013-08-24 16:56:00,
2013-08-24 13:01:00,76.0,63.4,30.18,NNW,344,1.0,3.0,65,0.00,,,0.00,WeatherCatV1.20B785,2013-08-24 17:01:00,
2013-08-24 13:06:00,77.0,63.0,30.18,ENE,60,2.0,6.0,62,0.00,,,0.00,WeatherCatV1.20B785,2013-08-24 17:06:00,
2013-08-24 13:11:00,77.9,61.4,30.18,East,96,0.0,7.0,57,0.00,,,0.00,WeatherCatV1.20B785,2013-08-24 17:11:00,
2013-08-24 13:16:00,77.7,62.2,30.18,ESE,103,0.0,1.0,59,0.00,,,0.00,WeatherCatV1.20B785,2013-08-24 17:16:00,
2013-08-24 13:21:00,78.3,61.3,30.17,ENE,61,1.0,5.0,56,0.00,,,0.00,WeatherCatV1.20B785,2013-08-24 17:21:00,
2013-08-24 13:26:00,79.0,63.9,30.18,ENE,62,0.0,0.0,60,0.00,,,0.00,WeatherCatV1.20B785,2013-08-24 17:26:00,
2013-08-24 13:31:00,78.1,63.5,30.17,ESE,120,0.0,1.0,61,0.00,,,0.00,WeatherCatV1.20B785,2013-08-24 17:31:00,
2013-08-24 13:36:00,77.6,63.5,30.17,ESE,120,0.0,0.0,62,0.00,,,0.00,WeatherCatV1.20B785,2013-08-24 17:36:00,
2013-08-24 13:41:00,77.7,63.6,30.17,SE,130,0.0,0.0,62,0.00,,,0.00,WeatherCatV1.20B785,2013-08-24 17:41:00,
2013-08-24 13:46:00,77.7,62.7,30.17,SE,130,0.0,0.0,60,0.00,,,0.00,WeatherCatV1.20B785,2013-08-24 17:46:00,
2013-08-24 13:51:00,77.5,62.0,30.17,South,171,0.0,0.0,59,0.00,,,0.00,WeatherCatV1.20B785,2013-08-24 17:51:00,
2013-08-24 13:56:00,78.3,63.2,30.17,East,96,0.0,0.0,60,0.00,,,0.00,WeatherCatV1.20B785,2013-08-24 17:56:00,
2013-08-24 14:01:00,78.4,62.4,30.17,SE,142,0.0,1.0,58,0.00,,,0.00,WeatherCatV1.20B785,2013-08-24 18:01:00,
2013-08-24 14:06:00,79.6,60.4,30.17,SSE,152,3.0,3.0,52,0.00,,,0.00,WeatherCatV1.20B785,2013-08-24 18:06:00,
2013-08-24 14:11:00,79.6,60.9,30.17,East,81,0.0,3.0,53,0.00,,,0.00,WeatherCatV1.20B785,2013-08-24 18:11:00,
2013-08-24 14:16:00,79.4,60.8,30.17,SSE,166,0.0,0.0,53,0.00,,,0.00,WeatherCatV1.20B785,2013-08-24 18:16:00,
2013-08-24 14:21:00,79.6,60.9,30.17,ESE,108,0.0,2.0,53,0.00,,,0.00,WeatherCatV1.20B785,2013-08-24 18:21:00,
2013-08-24 14:26:00,79.8,61.7,30.17,East,96,0.0,1.0,54,0.00,,,0.00,WeatherCatV1.20B785,2013-08-24 18:26:00,
2013-08-24 14:31:00,80.3,60.5,30.17,NE,54,0.0,4.0,51,0.00,,,0.00,WeatherCatV1.20B785,2013-08-24 18:31:00,
2013-08-24 14:36:00,79.8,60.0,30.17,SSE,147,1.0,1.0,51,0.00,,,0.00,WeatherCatV1.20B785,2013-08-24 18:36:00,
2013-08-24 14:41:00,78.6,60.0,30.17,WNW,289,0.0,4.0,53,0.00,,,0.00,WeatherCatV1.20B785,2013-08-24 18:41:00,
2013-08-24 14:46:00,78.2,60.2,30.17,WNW,283,0.0,0.0,54,0.00,,,0.00,WeatherCatV1.20B785,2013-08-24 18:46:00,
2013-08-24 14:51:00,78.6,62.1,30.17,West,281,0.0,0.0,57,0.00,,,0.00,WeatherCatV1.20B785,2013-08-24 18:51:00,
2013-08-24 14:56:00,79.0,60.4,30.17,WNW,285,1.0,1.0,53,0.00,,,0.00,WeatherCatV1.20B785,2013-08-24 18:56:00,
2013-08-24 15:01:00,78.6,60.5,30.17,SW,214,0.0,2.0,54,0.00,,,0.00,WeatherCatV1.20B785,2013-08-24 19:01:00,
2013-08-24 15:06:00,78.6,61.6,30.17,South,181,1.0,2.0,56,0.00,,,0.00,WeatherCatV1.20B785,2013-08-24 19:06:00,
2013-08-24 15:11:00,78.0,58.9,30.17,SSW,203,0.0,1.0,52,0.00,,,0.00,WeatherCatV1.20B785,2013-08-24 19:11:00,
2013-08-24 15:16:00,78.1,60.6,30.17,SSW,195,0.0,1.0,55,0.00,,,0.00,WeatherCatV1.20B785,2013-08-24 19:16:00,
2013-08-24 15:21:00,78.8,58.0,30.17,South,179,0.0,2.0,49,0.00,,,0.00,WeatherCatV1.20B785,2013-08-24 19:21:00,
2013-08-24 15:26:00,78.8,59.7,30.17,ESE,110,1.0,2.0,52,0.00,,,0.00,WeatherCatV1.20B785,2013-08-24 19:26:00,
2013-08-24 15:31:00,78.2,58.6,30.17,ENE,72,0.0,2.0,51,0.00,,,0.00,WeatherCatV1.20B785,2013-08-24 19:31:00,
2013-08-24 15:36:00,79.1,58.3,30.17,ENE,74,1.0,5.0,49,0.00,,,0.00,WeatherCatV1.20B785,2013-08-24 19:36:00,
2013-08-24 15:41:00,78.6,58.4,30.17,SSW,198,0.0,2.0,50,0.00,,,0.00,WeatherCatV1.20B785,2013-08-24 19:41:00,
2013-08-24 15:46:00,77.7,58.1,30.17,SSE,166,0.0,0.0,51,0.00,,,0.00,WeatherCatV1.20B785,2013-08-24 19:46:00,
2013-08-24 15:51:00,77.2,58.2,30.17,SE,129,0.0,0.0,52,0.00,,,0.00,WeatherCatV1.20B785,2013-08-24 19:51:00,
2013-08-24 15:56:00,77.4,58.4,30.17,West,266,0.0,3.0,52,0.00,,,0.00,WeatherCatV1.20B785,2013-08-24 19:56:00,
2013-08-24 16:01:00,77.4,58.9,30.17,South,180,0.0,1.0,53,0.00,,,0.00,WeatherCatV1.20B785,2013-08-24 20:01:00,
2013-08-24 16:06:00,77.4,58.4,30.17,NW,309,2.0,3.0,52,0.00,,,0.00,WeatherCatV1.20B785,2013-08-24 20:06:00,
2013-08-24 16:11:00,77.4,58.4,30.17,NW,310,0.0,1.0,52,0.00,,,0.00,WeatherCatV1.20B785,2013-08-24 20:11:00,
2013-08-24 16:16:00,77.5,59.0,30.17,WSW,244,0.0,2.0,53,0.00,,,0.00,WeatherCatV1.20B785,2013-08-24 20:16:00,
2013-08-24 16:21:00,77.7,58.7,30.17,SSE,159,0.0,0.0,52,0.00,,,0.00,WeatherCatV1.20B785,2013-08-24 20:21:00,
2013-08-24 16:26:00,77.8,58.7,30.17,SSW,194,2.0,3.0,52,0.00,,,0.00,WeatherCatV1.20B785,2013-08-24 20:26:00,
2013-08-24 16:31:00,77.9,58.8,30.17,South,173,1.0,1.0,52,0.00,,,0.00,WeatherCatV1.20B785,2013-08-24 20:31:00,
2013-08-24 16:36:00,77.9,58.8,30.17,SE,130,1.0,1.0,52,0.00,,,0.00,WeatherCatV1.20B785,2013-08-24 20:36:00,
2013-08-24 16:41:00,78.1,60.1,30.17,ESE,110,0.0,1.0,54,0.00,,,0.00,WeatherCatV1.20B785,2013-08-24 20:41:00,
2013-08-24 16:46:00,78.3,57.5,30.17,ENE,76,0.0,2.0,49,0.00,,,0.00,WeatherCatV1.20B785,2013-08-24 20:46:00,
2013-08-24 16:51:00,78.5,58.8,30.17,ESE,107,0.0,1.0,51,0.00,,,0.00,WeatherCatV1.20B785,2013-08-24 20:51:00,
2013-08-24 16:56:00,78.1,58.5,30.17,ESE,107,0.0,0.0,51,0.00,,,0.00,WeatherCatV1.20B785,2013-08-24 20:56:00,
2013-08-24 17:01:00,77.5,57.9,30.17,West,276,1.0,3.0,51,0.00,,,0.00,WeatherCatV1.20B785,2013-08-24 21:01:00,
2013-08-24 17:06:00,77.0,58.0,30.17,NW,310,0.0,1.0,52,0.00,,,0.00,WeatherCatV1.20B785,2013-08-24 21:06:00,
2013-08-24 17:11:00,76.9,59.0,30.17,NW,320,2.0,2.0,54,0.00,,,0.00,WeatherCatV1.20B785,2013-08-24 21:11:00,
2013-08-24 17:16:00,76.6,57.6,30.17,NW,321,0.0,0.0,52,0.00,,,0.00,WeatherCatV1.20B785,2013-08-24 21:16:00,
2013-08-24 17:21:00,76.5,58.1,30.17,NW,322,0.0,1.0,53,0.00,,,0.00,WeatherCatV1.20B785,2013-08-24 21:21:00,
2013-08-24 17:26:00,76.4,58.5,30.17,SSE,158,1.0,2.0,54,0.00,,,0.00,WeatherCatV1.20B785,2013-08-24 21:26:00,
2013-08-24 17:31:00,76.5,59.1,30.17,SE,134,1.0,1.0,55,0.00,,,0.00,WeatherCatV1.20B785,2013-08-24 21:31:00,
2013-08-24 17:36:00,77.2,58.2,30.17,ESE,108,0.0,2.0,52,0.00,,,0.00,WeatherCatV1.20B785,2013-08-24 21:36:00,
2013-08-24 17:41:00,77.7,58.7,30.17,ESE,108,0.0,0.0,52,0.00,,,0.00,WeatherCatV1.20B785,2013-08-24 21:41:00,
2013-08-24 17:46:00,76.5,57.5,30.17,NE,39,1.0,3.0,52,0.00,,,0.00,WeatherCatV1.20B785,2013-08-24 21:46:00,
2013-08-24 17:51:00,75.6,58.3,30.17,East,97,1.0,1.0,55,0.00,,,0.00,WeatherCatV1.20B785,2013-08-24 21:51:00,
2013-08-24 17:56:00,75.1,59.3,30.17,ENE,69,1.0,3.0,58,0.00,,,0.00,WeatherCatV1.20B785,2013-08-24 21:56:00,
2013-08-24 18:01:00,74.7,58.4,30.17,ESE,120,0.0,1.0,57,0.00,,,0.00,WeatherCatV1.20B785,2013-08-24 22:01:00,
2013-08-24 18:06:00,74.4,58.2,30.17,ESE,116,0.0,0.0,57,0.00,,,0.00,WeatherCatV1.20B785,2013-08-24 22:06:00,
2013-08-24 18:11:00,74.0,58.3,30.17,SSE,164,0.0,2.0,58,0.00,,,0.00,WeatherCatV1.20B785,2013-08-24 22:11:00,
2013-08-24 18:16:00,74.0,58.8,30.17,East,98,0.0,1.0,59,0.00,,,0.00,WeatherCatV1.20B785,2013-08-24 22:16:00,
2013-08-24 18:21:00,73.7,58.5,30.17,ENE,63,0.0,0.0,59,0.00,,,0.00,WeatherCatV1.20B785,2013-08-24 22:21:00,
2013-08-24 18:26:00,73.5,58.8,30.17,ENE,63,0.0,1.0,60,0.00,,,0.00,WeatherCatV1.20B785,2013-08-24 22:26:00,
2013-08-24 18:31:00,73.4,58.7,30.17,ENE,57,0.0,1.0,60,0.00,,,0.00,WeatherCatV1.20B785,2013-08-24 22:31:00,
2013-08-24 18:36:00,73.2,59.4,30.17,ENE,57,0.0,1.0,62,0.00,,,0.00,WeatherCatV1.20B785,2013-08-24 22:36:00,
2013-08-24 18:41:00,72.9,59.1,30.17,ENE,58,0.0,1.0,62,0.00,,,0.00,WeatherCatV1.20B785,2013-08-24 22:41:00,
2013-08-24 18:46:00,72.6,59.3,30.17,ENE,59,0.0,1.0,63,0.00,,,0.00,WeatherCatV1.20B785,2013-08-24 22:46:00,
2013-08-24 18:51:00,72.4,59.1,30.17,ENE,58,0.0,1.0,63,0.00,,,0.00,WeatherCatV1.20B785,2013-08-24 22:51:00,
2013-08-24 18:56:00,72.2,59.3,30.17,ENE,61,2.0,2.0,64,0.00,,,0.00,WeatherCatV1.20B785,2013-08-24 22:56:00,
2013-08-24 19:01:00,72.2,58.9,30.17,East,80,0.0,1.0,63,0.00,,,0.00,WeatherCatV1.20B785,2013-08-24 23:01:00,
2013-08-24 19:06:00,72.0,59.6,30.17,ENE,75,1.0,1.0,65,0.00,,,0.00,WeatherCatV1.20B785,2013-08-24 23:06:00,
2013-08-24 19:11:00,71.8,59.0,30.18,ENE,59,0.0,1.0,64,0.00,,,0.00,WeatherCatV1.20B785,2013-08-24 23:11:00,
2013-08-24 19:16:00,71.6,59.2,30.18,NE,52,0.0,2.0,65,0.00,,,0.00,WeatherCatV1.20B785,2013-08-24 23:16:00,
2013-08-24 19:21:00,71.4,59.0,30.18,ENE,58,1.0,4.0,65,0.00,,,0.00,WeatherCatV1.20B785,2013-08-24 23:21:00,
2013-08-24 19:26:00,71.3,59.3,30.17,ENE,62,1.0,2.0,66,0.00,,,0.00,WeatherCatV1.20B785,2013-08-24 23:26:00,
2013-08-24 19:31:00,71.1,59.2,30.18,ENE,63,0.0,0.0,66,0.00,,,0.00,WeatherCatV1.20B785,2013-08-24 23:31:00,
2013-08-24 19:36:00,70.9,59.4,30.18,NE,49,0.0,3.0,67,0.00,,,0.00,WeatherCatV1.20B785,2013-08-24 23:36:00,
2013-08-24 19:41:00,70.7,58.8,30.18,East,84,0.0,3.0,66,0.00,,,0.00,WeatherCatV1.20B785,2013-08-24 23:41:00,
2013-08-24 19:46:00,70.5,58.6,30.18,East,96,0.0,0.0,66,0.00,,,0.00,WeatherCatV1.20B785,2013-08-24 23:46:00,
2013-08-24 19:51:00,70.3,59.2,30.18,ENE,65,1.0,7.0,68,0.00,,,0.00,WeatherCatV1.20B785,2013-08-24 23:51:00,
2013-08-24 19:56:00,70.2,58.7,30.19,East,98,1.0,2.0,67,0.00,,,0.00,WeatherCatV1.20B785,2013-08-24 23:56:00,
2013-08-24 20:01:00,70.0,58.5,30.19,ESE,103,0.0,6.0,67,0.00,,,0.00,WeatherCatV1.20B785,2013-08-25 00:01:00,
2013-08-24 20:06:00,69.7,58.7,30.18,NE,48,1.0,4.0,68,0.00,,,0.00,WeatherCatV1.20B785,2013-08-25 00:06:00,
2013-08-24 20:11:00,69.6,58.6,30.19,ENE,60,1.0,2.0,68,0.00,,,0.00,WeatherCatV1.20B785,2013-08-25 00:11:00,
2013-08-24 20:16:00,69.3,58.7,30.19,ENE,62,2.0,3.0,69,0.00,,,0.00,WeatherCatV1.20B785,2013-08-25 00:16:00,
2013-08-24 20:21:00,69.2,59.0,30.19,ENE,68,1.0,1.0,70,0.00,,,0.00,WeatherCatV1.20B785,2013-08-25 00:21:00,
2013-08-24 20:26:00,69.0,58.4,30.19,ENE,65,0.0,3.0,69,0.00,,,0.00,WeatherCatV1.20B785,2013-08-25 00:26:00,
2013-08-24 20:31:00,68.9,59.1,30.19,ENE,67,0.0,1.0,71,0.00,,,0.00,WeatherCatV1.20B785,2013-08-25 00:31:00,
2013-08-24 20:36:00,68.7,58.9,30.19,ENE,72,0.0,0.0,71,0.00,,,0.00,WeatherCatV1.20B785,2013-08-25 00:36:00,
2013-08-24 20:41:00,68.2,59.2,30.20,East,99,0.0,1.0,73,0.00,,,0.00,WeatherCatV1.20B785,2013-08-25 00:41:00,
2013-08-24 20:46:00,67.9,58.9,30.19,East,99,0.0,0.0,73,0.00,,,0.00,WeatherCatV1.20B785,2013-08-25 00:46:00,
2013-08-24 20:51:00,67.5,58.9,30.20,East,99,0.0,0.0,74,0.00,,,0.00,WeatherCatV1.20B785,2013-08-25 00:51:00,
2013-08-24 20:56:00,67.2,58.6,30.20,East,99,0.0,0.0,74,0.00,,,0.00,WeatherCatV1.20B785,2013-08-25 00:56:00,
2013-08-24 21:01:00,66.9,59.1,30.20,East,99,0.0,0.0,76,0.00,,,0.00,WeatherCatV1.20B785,2013-08-25 01:01:00,
2013-08-24 21:06:00,66.9,58.7,30.21,ESE,120,0.0,1.0,75,0.00,,,0.00,WeatherCatV1.20B785,2013-08-25 01:06:00,
2013-08-24 21:11:00,66.7,58.5,30.21,ESE,120,0.0,1.0,75,0.00,,,0.00,WeatherCatV1.20B785,2013-08-25 01:11:00,
2013-08-24 21:16:00,66.6,58.4,30.22,ESE,120,0.0,0.0,75,0.00,,,0.00,WeatherCatV1.20B785,2013-08-25 01:16:00,
2013-08-24 21:21:00,66.4,59.0,30.22,ESE,120,0.0,1.0,77,0.00,,,0.00,WeatherCatV1.20B785,2013-08-25 01:21:00,
2013-08-24 21:26:00,66.1,58.3,30.22,ESE,120,0.0,1.0,76,0.00,,,0.00,WeatherCatV1.20B785,2013-08-25 01:26:00,
2013-08-24 21:31:00,65.9,58.5,30.22,ESE,120,0.0,1.0,77,0.00,,,0.00,WeatherCatV1.20B785,2013-08-25 01:31:00,
2013-08-24 21:36:00,65.6,58.2,30.22,East,89,0.0,1.0,77,0.00,,,0.00,WeatherCatV1.20B785,2013-08-25 01:36:00,
2013-08-24 21:41:00,65.5,58.1,30.22,East,98,0.0,2.0,77,0.00,,,0.00,WeatherCatV1.20B785,2013-08-25 01:41:00,
2013-08-24 21:46:00,66.0,58.6,30.22,East,96,0.0,1.0,77,0.00,,,0.00,WeatherCatV1.20B785,2013-08-25 01:46:00,
2013-08-24 21:51:00,66.0,58.2,30.22,East,97,0.0,0.0,76,0.00,,,0.00,WeatherCatV1.20B785,2013-08-25 01:51:00,
2013-08-24 21:56:00,65.8,58.4,30.23,East,97,0.0,0.0,77,0.00,,,0.00,WeatherCatV1.20B785,2013-08-25 01:56:00,
2013-08-24 22:01:00,65.7,58.3,30.23,East,97,0.0,1.0,77,0.00,,,0.00,WeatherCatV1.20B785,2013-08-25 02:01:00,
2013-08-24 22:06:00,65.7,57.9,30.23,East,97,0.0,0.0,76,0.00,,,0.00,WeatherCatV1.20B785,2013-08-25 02:06:00,
2013-08-24 22:11:00,65.7,57.9,30.23,SE,139,0.0,0.0,76,0.00,,,0.00,WeatherCatV1.20B785,2013-08-25 02:11:00,
2013-08-24 22:16:00,65.5,57.4,30.24,ESE,115,0.0,1.0,75,0.00,,,0.00,WeatherCatV1.20B785,2013-08-25 02:16:00,
2013-08-24 22:21:00,65.4,57.3,30.24,ESE,115,0.0,1.0,75,0.00,,,0.00,WeatherCatV1.20B785,2013-08-25 02:21:00,
2013-08-24 22:26:00,65.3,57.9,30.24,SE,141,0.0,2.0,77,0.00,,,0.00,WeatherCatV1.20B785,2013-08-25 02:26:00,
2013-08-24 22:31:00,65.2,58.2,30.24,East,94,0.0,0.0,78,0.00,,,0.00,WeatherCatV1.20B785,2013-08-25 02:31:00,
2013-08-24 22:36:00,65.1,57.7,30.24,East,95,0.0,1.0,77,0.00,,,0.00,WeatherCatV1.20B785,2013-08-25 02:36:00,
2013-08-24 22:41:00,65.0,57.2,30.24,ENE,78,0.0,2.0,76,0.00,,,0.00,WeatherCatV1.20B785,2013-08-25 02:41:00,
2013-08-24 22:46:00,65.0,58.0,30.25,SE,129,0.0,0.0,78,0.00,,,0.00,WeatherCatV1.20B785,2013-08-25 02:46:00,
2013-08-24 22:51:00,64.8,57.4,30.25,SE,129,0.0,1.0,77,0.00,,,0.00,WeatherCatV1.20B785,2013-08-25 02:51:00,
2013-08-24 22:56:00,64.6,57.6,30.25,ESE,107,0.0,0.0,78,0.00,,,0.00,WeatherCatV1.20B785,2013-08-25 02:56:00,
2013-08-24 23:01:00,64.5,56.8,30.25,ESE,107,0.0,1.0,76,0.00,,,0.00,WeatherCatV1.20B785,2013-08-25 03:01:00,
2013-08-24 23:06:00,64.5,57.1,30.25,East,92,0.0,1.0,77,0.00,,,0.00,WeatherCatV1.20B785,2013-08-25 03:06:00,
2013-08-24 23:11:00,64.4,57.0,30.25,East,92,0.0,0.0,77,0.00,,,0.00,WeatherCatV1.20B785,2013-08-25 03:11:00,
2013-08-24 23:16:00,64.1,57.1,30.26,ENE,75,0.0,1.0,78,0.00,,,0.00,WeatherCatV1.20B785,2013-08-25 03:16:00,
2013-08-24 23:21:00,63.9,57.2,30.26,ENE,75,0.0,0.0,79,0.00,,,0.00,WeatherCatV1.20B785,2013-08-25 03:21:00,
2013-08-24 23:26:00,63.8,57.2,30.26,East,81,0.0,1.0,79,0.00,,,0.00,WeatherCatV1.20B785,2013-08-25 03:26:00,
2013-08-24 23:31:00,63.5,56.9,30.26,East,82,0.0,1.0,79,0.00,,,0.00,WeatherCatV1.20B785,2013-08-25 03:31:00,
2013-08-24 23:36:00,63.2,56.6,30.26,East,81,0.0,1.0,79,0.00,,,0.00,WeatherCatV1.20B785,2013-08-25 03:36:00,
2013-08-24 23:41:00,63.1,57.2,30.26,East,81,0.0,0.0,81,0.00,,,0.00,WeatherCatV1.20B785,2013-08-25 03:41:00,
2013-08-24 23:46:00,62.9,57.3,30.26,East,81,0.0,0.0,82,0.00,,,0.00,WeatherCatV1.20B785,2013-08-25 03:46:00,
2013-08-24 23:51:00,62.6,57.4,30.26,East,82,0.0,0.0,83,0.00,,,0.00,WeatherCatV1.20B785,2013-08-25 03:51:00,
2013-08-24 23:56:00,62.4,57.2,30.27,East,81,0.0,0.0,83,0.00,,,0.00,WeatherCatV1.20B785,2013-08-25 03:56:00,